createdAt,value
2019-06-26T00:00:11.511Z,27.78
2019-06-26T00:01:11.482Z,27.8
2019-06-26T00:02:11.510Z,27.83
2019-06-26T00:03:11.532Z,27.8
2019-06-26T00:04:11.829Z,27.82
2019-06-26T00:05:11.905Z,27.82
2019-06-26T00:06:11.614Z,27.83
2019-06-26T00:07:11.414Z,27.77
2019-06-26T00:08:11.809Z,27.85
2019-06-26T00:09:11.703Z,27.85
2019-06-26T00:10:11.990Z,27.73
2019-06-26T00:11:12.022Z,27.78
2019-06-26T00:12:11.783Z,27.78
2019-06-26T00:13:27.636Z,27.67
2019-06-26T00:14:12.098Z,27.75
2019-06-26T00:15:12.139Z,27.74
2019-06-26T00:16:12.170Z,27.77
2019-06-26T00:17:11.929Z,27.75
2019-06-26T00:18:12.246Z,27.7
2019-06-26T00:19:12.253Z,27.68
2019-06-26T00:20:12.281Z,27.68
2019-06-26T00:21:11.784Z,27.74
2019-06-26T00:22:11.803Z,27.73
2019-06-26T00:23:12.354Z,27.77
2019-06-26T00:24:12.379Z,27.73
2019-06-26T00:25:11.896Z,27.73
2019-06-26T00:26:12.176Z,27.75
2019-06-26T00:27:12.514Z,27.67
2019-06-26T00:28:12.228Z,27.7
2019-06-26T00:29:12.252Z,27.67
2019-06-26T00:30:12.290Z,27.71
2019-06-26T00:31:12.608Z,27.64
2019-06-26T00:32:12.385Z,27.64
2019-06-26T00:33:12.630Z,27.68
2019-06-26T00:34:12.139Z,27.64
2019-06-26T00:35:12.167Z,27.64
2019-06-26T00:36:12.484Z,27.48
2019-06-26T00:37:12.475Z,27.59
2019-06-26T00:38:12.510Z,27.59
2019-06-26T00:39:12.803Z,27.64
2019-06-26T00:40:12.828Z,27.59
2019-06-26T00:41:12.680Z,27.48
2019-06-26T00:42:12.934Z,27.58
2019-06-26T00:43:12.643Z,27.6
2019-06-26T00:44:12.931Z,27.52
2019-06-26T00:45:12.722Z,27.58
2019-06-26T00:46:12.724Z,27.55
2019-06-26T00:47:12.498Z,27.52
2019-06-26T00:48:13.045Z,27.55
2019-06-26T00:49:12.822Z,27.52
2019-06-26T00:50:12.843Z,27.58
2019-06-26T00:51:12.876Z,27.54
2019-06-26T00:52:13.159Z,27.51
2019-06-26T00:53:12.918Z,27.52
2019-06-26T00:54:13.105Z,27.47
2019-06-26T00:55:13.030Z,27.55
2019-06-26T00:56:13.267Z,27.58
2019-06-26T00:57:13.054Z,27.48
2019-06-26T00:58:12.816Z,27.49
2019-06-26T00:59:13.095Z,27.48
2019-06-26T01:00:13.147Z,27.47
2019-06-26T01:01:12.925Z,27.47
2019-06-26T01:02:13.496Z,27.42
2019-06-26T01:03:13.463Z,27.42
2019-06-26T01:04:13.233Z,27.45
2019-06-26T01:05:13.547Z,27.39
2019-06-26T01:06:13.296Z,27.45
2019-06-26T01:07:13.598Z,27.42
2019-06-26T01:08:13.348Z,27.42
2019-06-26T01:09:13.375Z,27.45
2019-06-26T01:10:13.391Z,27.4
2019-06-26T01:11:13.447Z,27.42
2019-06-26T01:12:13.871Z,27.4
2019-06-26T01:13:13.482Z,27.47
2019-06-26T01:14:13.808Z,27.44
2019-06-26T01:15:13.807Z,27.44
2019-06-26T01:16:13.844Z,27.36
2019-06-26T01:17:13.852Z,27.4
2019-06-26T01:18:13.615Z,27.45
2019-06-26T01:19:13.666Z,27.44
2019-06-26T01:20:13.961Z,27.45
2019-06-26T01:21:13.439Z,27.36
2019-06-26T01:22:14.038Z,27.35
2019-06-26T01:23:13.753Z,27.39
2019-06-26T01:24:14.046Z,27.47
2019-06-26T01:25:13.807Z,27.36
2019-06-26T01:26:14.096Z,27.39
2019-06-26T01:27:14.138Z,27.33
2019-06-26T01:28:14.157Z,27.3
2019-06-26T01:29:14.177Z,27.33
2019-06-26T01:30:14.215Z,27.25
2019-06-26T01:31:13.986Z,27.27
2019-06-26T01:32:14.005Z,27.27
2019-06-26T01:33:14.357Z,27.32
2019-06-26T01:34:13.801Z,27.3
2019-06-26T01:35:14.080Z,27.26
2019-06-26T01:36:14.111Z,27.22
2019-06-26T01:37:14.399Z,27.22
2019-06-26T01:38:14.166Z,27.2
2019-06-26T01:39:14.457Z,27.21
2019-06-26T01:40:14.510Z,27.25
2019-06-26T01:41:14.316Z,27.25
2019-06-26T01:42:14.538Z,27.29
2019-06-26T01:43:14.326Z,27.21
2019-06-26T01:44:19.752Z,27.21
2019-06-26T01:45:14.643Z,27.29
2019-06-26T01:46:14.395Z,27.26
2019-06-26T01:47:14.422Z,27.17
2019-06-26T01:48:14.709Z,27.18
2019-06-26T01:49:14.481Z,27.26
2019-06-26T01:50:14.508Z,27.25
2019-06-26T01:51:14.267Z,27.17
2019-06-26T01:52:14.580Z,27.18
2019-06-26T01:53:14.852Z,27.22
2019-06-26T01:54:14.617Z,27.21
2019-06-26T01:55:14.900Z,27.2
2019-06-26T01:56:14.663Z,27.17
2019-06-26T01:57:14.965Z,27.15
2019-06-26T01:58:14.721Z,27.21
2019-06-26T01:59:14.760Z,27.18
2019-06-26T02:00:14.779Z,27.12
2019-06-26T02:01:14.806Z,27.18
2019-06-26T02:02:15.091Z,27.15
2019-06-26T02:03:14.860Z,27.18
2019-06-26T02:04:18.124Z,27.18
2019-06-26T02:05:14.941Z,27.18
2019-06-26T02:06:15.204Z,27.17
2019-06-26T02:07:14.994Z,27.14
2019-06-26T02:08:15.294Z,27.18
2019-06-26T02:09:15.303Z,27.15
2019-06-26T02:10:15.058Z,27.12
2019-06-26T02:11:15.083Z,27.17
2019-06-26T02:12:15.366Z,27.18
2019-06-26T02:13:15.434Z,27.12
2019-06-26T02:14:29.878Z,27.12
2019-06-26T02:15:15.514Z,27.15
2019-06-26T02:16:14.955Z,27.15
2019-06-26T02:17:14.985Z,27.18
2019-06-26T02:18:15.532Z,27.12
2019-06-26T02:19:15.298Z,27.18
2019-06-26T02:20:15.586Z,27.12
2019-06-26T02:21:15.371Z,27.2
2019-06-26T02:22:15.383Z,27.12
2019-06-26T02:23:15.416Z,27.14
2019-06-26T02:24:15.695Z,27.17
2019-06-26T02:25:15.464Z,27.12
2019-06-26T02:26:15.760Z,27.18
2019-06-26T02:27:15.519Z,27.08
2019-06-26T02:28:15.286Z,27.18
2019-06-26T02:29:15.884Z,27.08
2019-06-26T02:30:15.876Z,27.05
2019-06-26T02:31:15.635Z,27.05
2019-06-26T02:32:15.397Z,27.1
2019-06-26T02:33:15.946Z,27.1
2019-06-26T02:34:15.976Z,27.12
2019-06-26T02:35:15.749Z,27.08
2019-06-26T02:36:15.769Z,27.03
2019-06-26T02:37:16.058Z,27.08
2019-06-26T02:38:16.158Z,27.1
2019-06-26T02:39:15.849Z,27.02
2019-06-26T02:40:16.156Z,27.07
2019-06-26T02:41:16.191Z,27
2019-06-26T02:42:16.223Z,27.05
2019-06-26T02:43:15.699Z,27.03
2019-06-26T02:44:16.251Z,27.03
2019-06-26T02:45:16.337Z,27.07
2019-06-26T02:46:15.780Z,27
2019-06-26T02:47:24.971Z,26.93
2019-06-26T02:48:16.092Z,27.05
2019-06-26T02:49:16.398Z,26.99
2019-06-26T02:50:16.604Z,26.97
2019-06-26T02:51:16.199Z,27
2019-06-26T02:52:16.480Z,26.9
2019-06-26T02:53:16.493Z,27.02
2019-06-26T02:54:16.548Z,27
2019-06-26T02:55:16.383Z,26.92
2019-06-26T02:56:16.312Z,27.03
2019-06-26T02:57:16.616Z,27.03
2019-06-26T02:58:16.373Z,27.02
2019-06-26T02:59:16.400Z,27.07
2019-06-26T03:00:16.446Z,26.93
2019-06-26T03:01:16.462Z,26.97
2019-06-26T03:02:16.772Z,27
2019-06-26T03:03:16.792Z,26.95
2019-06-26T03:04:16.536Z,26.9
2019-06-26T03:05:16.562Z,27.03
2019-06-26T03:06:16.590Z,26.95
2019-06-26T03:07:16.891Z,26.96
2019-06-26T03:08:16.904Z,26.9
2019-06-26T03:09:16.927Z,26.93
2019-06-26T03:10:17.059Z,26.92
2019-06-26T03:11:16.818Z,26.88
2019-06-26T03:12:16.777Z,26.89
2019-06-26T03:13:16.775Z,26.95
2019-06-26T03:14:17.070Z,26.89
2019-06-26T03:15:17.098Z,26.89
2019-06-26T03:16:16.915Z,26.92
2019-06-26T03:17:16.886Z,26.83
2019-06-26T03:18:16.652Z,26.84
2019-06-26T03:19:16.963Z,26.9
2019-06-26T03:20:16.713Z,26.85
2019-06-26T03:21:16.994Z,26.93
2019-06-26T03:22:17.034Z,26.92
2019-06-26T03:23:17.051Z,26.9
2019-06-26T03:24:17.083Z,26.93
2019-06-26T03:25:17.112Z,26.92
2019-06-26T03:26:17.395Z,26.92
2019-06-26T03:27:17.161Z,26.92
2019-06-26T03:28:17.183Z,26.89
2019-06-26T03:29:17.476Z,26.85
2019-06-26T03:30:17.542Z,26.89
2019-06-26T03:31:17.545Z,26.88
2019-06-26T03:32:17.575Z,26.88
2019-06-26T03:33:17.073Z,26.89
2019-06-26T03:34:17.611Z,26.84
2019-06-26T03:35:17.642Z,26.89
2019-06-26T03:36:17.670Z,26.88
2019-06-26T03:37:17.170Z,26.84
2019-06-26T03:38:17.718Z,26.81
2019-06-26T03:39:17.226Z,26.85
2019-06-26T03:40:17.263Z,26.9
2019-06-26T03:41:17.571Z,26.88
2019-06-26T03:42:17.843Z,26.88
2019-06-26T03:43:17.861Z,26.83
2019-06-26T03:44:17.989Z,26.9
2019-06-26T03:45:30.187Z,26.92
2019-06-26T03:46:17.678Z,26.92
2019-06-26T03:47:17.710Z,26.9
2019-06-26T03:48:18.005Z,26.89
2019-06-26T03:49:17.764Z,26.97
2019-06-26T03:50:17.786Z,26.89
2019-06-26T03:51:18.865Z,26.9
2019-06-26T03:52:17.856Z,26.95
2019-06-26T03:53:17.874Z,26.97
2019-06-26T03:54:18.201Z,26.93
2019-06-26T03:55:18.184Z,26.96
2019-06-26T03:56:18.249Z,26.95
2019-06-26T03:57:18.000Z,27.03
2019-06-26T03:58:18.011Z,27.03
2019-06-26T03:59:18.028Z,27.03
2019-06-26T04:00:18.062Z,26.99
2019-06-26T04:01:18.104Z,27
2019-06-26T04:02:18.437Z,26.93
2019-06-26T04:03:18.186Z,27.02
2019-06-26T04:04:18.449Z,27.02
2019-06-26T04:05:18.196Z,27.03
2019-06-26T04:06:18.491Z,26.96
2019-06-26T04:07:18.501Z,26.99
2019-06-26T04:08:18.532Z,27.03
2019-06-26T04:09:18.306Z,26.96
2019-06-26T04:10:18.585Z,27.03
2019-06-26T04:11:18.617Z,26.95
2019-06-26T04:12:18.673Z,26.97
2019-06-26T04:13:18.411Z,27.08
2019-06-26T04:14:18.704Z,27.1
2019-06-26T04:15:18.734Z,27.08
2019-06-26T04:16:18.507Z,27.11
2019-06-26T04:17:18.776Z,27.2
2019-06-26T04:18:18.547Z,27.17
2019-06-26T04:19:18.839Z,27.15
2019-06-26T04:20:18.890Z,27.2
2019-06-26T04:21:18.886Z,27.15
2019-06-26T04:22:18.910Z,27.25
2019-06-26T04:23:18.939Z,27.27
2019-06-26T04:24:18.980Z,27.29
2019-06-26T04:25:19.006Z,27.37
2019-06-26T04:26:18.962Z,27.39
2019-06-26T04:27:18.794Z,27.44
2019-06-26T04:28:18.818Z,27.3
2019-06-26T04:29:19.105Z,27.4
2019-06-26T04:30:18.878Z,27.42
2019-06-26T04:31:18.908Z,27.47
2019-06-26T04:32:18.927Z,27.37
2019-06-26T04:33:18.956Z,27.37
2019-06-26T04:34:19.250Z,27.4
2019-06-26T04:35:19.011Z,27.35
2019-06-26T04:36:18.773Z,27.36
2019-06-26T04:37:19.069Z,27.42
2019-06-26T04:38:19.349Z,27.42
2019-06-26T04:39:19.425Z,27.44
2019-06-26T04:40:22.822Z,27.45
2019-06-26T04:41:19.435Z,27.47
2019-06-26T04:42:18.945Z,27.49
2019-06-26T04:43:19.488Z,27.48
2019-06-26T04:44:19.274Z,27.49
2019-06-26T04:45:19.021Z,27.55
2019-06-26T04:46:19.318Z,27.58
2019-06-26T04:47:19.332Z,27.49
2019-06-26T04:48:19.100Z,27.39
2019-06-26T04:49:19.389Z,27.48
2019-06-26T04:50:19.163Z,27.44
2019-06-26T04:51:19.485Z,27.4
2019-06-26T04:52:19.479Z,27.4
2019-06-26T04:53:19.780Z,27.4
2019-06-26T04:54:19.526Z,27.37
2019-06-26T04:55:19.815Z,27.29
2019-06-26T04:56:19.902Z,27.29
2019-06-26T04:57:19.873Z,27.25
2019-06-26T04:58:19.913Z,27.25
2019-06-26T04:59:19.663Z,27.2
2019-06-26T05:00:21.829Z,27.18
2019-06-26T05:01:19.721Z,27.15
2019-06-26T05:02:19.768Z,27.18
2019-06-26T05:03:20.042Z,27.17
2019-06-26T05:04:20.079Z,27.15
2019-06-26T05:05:19.824Z,27.2
2019-06-26T05:06:20.114Z,27.17
2019-06-26T05:07:19.894Z,27.21
2019-06-26T05:08:19.912Z,27.17
2019-06-26T05:09:20.385Z,27.22
2019-06-26T05:10:19.974Z,27.15
2019-06-26T05:11:20.004Z,27.17
2019-06-26T05:12:19.772Z,27.18
2019-06-26T05:13:20.064Z,27.21
2019-06-26T05:14:20.374Z,27.15
2019-06-26T05:15:19.839Z,27.11
2019-06-26T05:16:24.870Z,27.17
2019-06-26T05:17:20.456Z,27.21
2019-06-26T05:18:20.472Z,27.15
2019-06-26T05:19:20.470Z,27.15
2019-06-26T05:20:20.501Z,27.14
2019-06-26T05:21:20.595Z,27.21
2019-06-26T05:22:20.299Z,27.14
2019-06-26T05:23:20.083Z,27.17
2019-06-26T05:24:20.631Z,27.21
2019-06-26T05:25:20.375Z,27.21
2019-06-26T05:26:20.660Z,27.2
2019-06-26T05:27:20.443Z,27.14
2019-06-26T05:28:20.507Z,27.2
2019-06-26T05:29:20.746Z,27.1
2019-06-26T05:30:20.518Z,27.17
2019-06-26T05:31:20.811Z,27.21
2019-06-26T05:32:20.317Z,27.18
2019-06-26T05:33:20.604Z,27.17
2019-06-26T05:34:20.623Z,27.17
2019-06-26T05:35:20.385Z,27.15
2019-06-26T05:36:20.674Z,27.25
2019-06-26T05:37:20.458Z,27.14
2019-06-26T05:38:20.986Z,27.22
2019-06-26T05:39:21.051Z,27.17
2019-06-26T05:40:21.103Z,27.18
2019-06-26T05:41:20.820Z,27.26
2019-06-26T05:42:20.836Z,27.18
2019-06-26T05:43:21.135Z,27.2
2019-06-26T05:44:20.894Z,27.17
2019-06-26T05:45:21.185Z,27.2
2019-06-26T05:46:35.569Z,27.2
2019-06-26T05:47:24.455Z,27.21
2019-06-26T05:48:21.003Z,27.26
2019-06-26T05:49:21.032Z,27.27
2019-06-26T05:50:21.318Z,27.27
2019-06-26T05:51:21.355Z,27.35
2019-06-26T05:52:21.454Z,27.32
2019-06-26T05:53:21.436Z,27.4
2019-06-26T05:54:21.430Z,27.35
2019-06-26T05:55:21.196Z,27.36
2019-06-26T05:56:21.221Z,27.37
2019-06-26T05:57:21.254Z,27.44
2019-06-26T05:58:21.542Z,27.36
2019-06-26T05:59:21.567Z,27.44
2019-06-26T06:00:21.763Z,27.37
2019-06-26T06:01:21.418Z,27.42
2019-06-26T06:02:21.401Z,27.49
2019-06-26T06:03:21.677Z,27.49
2019-06-26T06:04:21.709Z,27.58
2019-06-26T06:05:21.729Z,27.58
2019-06-26T06:06:21.234Z,27.55
2019-06-26T06:07:21.528Z,27.63
2019-06-26T06:08:21.570Z,27.55
2019-06-26T06:09:21.588Z,27.55
2019-06-26T06:10:21.969Z,27.59
2019-06-26T06:11:21.894Z,27.64
2019-06-26T06:12:21.925Z,27.58
2019-06-26T06:13:21.979Z,27.55
2019-06-26T06:14:21.983Z,27.58
2019-06-26T06:15:21.751Z,27.63
2019-06-26T06:16:21.867Z,27.64
2019-06-26T06:17:21.817Z,27.63
2019-06-26T06:18:22.094Z,27.6
2019-06-26T06:19:21.976Z,27.64
2019-06-26T06:20:21.625Z,27.64
2019-06-26T06:21:22.175Z,27.67
2019-06-26T06:22:21.949Z,27.51
2019-06-26T06:23:21.969Z,27.65
2019-06-26T06:24:22.270Z,27.65
2019-06-26T06:25:22.316Z,27.55
2019-06-26T06:26:21.834Z,27.58
2019-06-26T06:27:22.078Z,27.64
2019-06-26T06:28:21.855Z,27.63
2019-06-26T06:29:22.387Z,27.64
2019-06-26T06:30:22.447Z,27.6
2019-06-26T06:31:22.193Z,27.67
2019-06-26T06:32:21.956Z,27.64
2019-06-26T06:33:22.242Z,27.67
2019-06-26T06:34:22.268Z,27.63
2019-06-26T06:35:22.302Z,27.63
2019-06-26T06:36:22.338Z,27.67
2019-06-26T06:37:22.622Z,27.65
2019-06-26T06:38:22.400Z,27.67
2019-06-26T06:39:22.405Z,27.67
2019-06-26T06:40:22.182Z,27.68
2019-06-26T06:41:22.463Z,27.67
2019-06-26T06:42:22.749Z,27.67
2019-06-26T06:43:22.528Z,27.7
2019-06-26T06:44:22.546Z,27.7
2019-06-26T06:45:22.915Z,27.67
2019-06-26T06:46:22.345Z,27.68
2019-06-26T06:47:22.945Z,27.71
2019-06-26T06:48:22.699Z,27.71
2019-06-26T06:49:22.701Z,27.68
2019-06-26T06:50:22.713Z,27.71
2019-06-26T06:51:22.739Z,27.68
2019-06-26T06:52:23.026Z,27.74
2019-06-26T06:53:23.058Z,27.73
2019-06-26T06:54:23.127Z,27.71
2019-06-26T06:55:23.187Z,27.74
2019-06-26T06:56:23.153Z,27.7
2019-06-26T06:57:22.649Z,27.74
2019-06-26T06:58:23.198Z,27.68
2019-06-26T06:59:23.220Z,27.71
2019-06-26T07:00:23.294Z,27.7
2019-06-26T07:01:23.329Z,27.73
2019-06-26T07:02:23.041Z,27.68
2019-06-26T07:03:23.069Z,27.73
2019-06-26T07:04:23.093Z,27.74
2019-06-26T07:05:23.123Z,27.71
2019-06-26T07:06:23.223Z,27.73
2019-06-26T07:07:23.182Z,27.74
2019-06-26T07:08:23.469Z,27.68
2019-06-26T07:09:23.514Z,27.78
2019-06-26T07:10:23.259Z,27.73
2019-06-26T07:11:23.553Z,27.77
2019-06-26T07:12:25.863Z,27.78
2019-06-26T07:13:23.612Z,27.74
2019-06-26T07:14:23.376Z,27.74
2019-06-26T07:15:23.143Z,27.86
2019-06-26T07:16:23.425Z,27.83
2019-06-26T07:17:26.090Z,27.82
2019-06-26T07:18:23.226Z,27.85
2019-06-26T07:19:23.769Z,27.82
2019-06-26T07:20:23.814Z,27.83
2019-06-26T07:21:23.826Z,27.83
2019-06-26T07:22:23.632Z,27.86
2019-06-26T07:23:23.628Z,27.85
2019-06-26T07:24:23.916Z,27.87
2019-06-26T07:25:23.980Z,27.8
2019-06-26T07:26:23.706Z,27.85
2019-06-26T07:27:24.000Z,27.86
2019-06-26T07:28:24.152Z,27.85
2019-06-26T07:29:23.784Z,27.83
2019-06-26T07:30:24.346Z,27.86
2019-06-26T07:31:24.136Z,27.85
2019-06-26T07:32:24.168Z,27.89
2019-06-26T07:33:24.153Z,27.87
2019-06-26T07:34:23.998Z,27.87
2019-06-26T07:35:23.974Z,27.92
2019-06-26T07:36:23.988Z,27.85
2019-06-26T07:37:24.004Z,27.95
2019-06-26T07:38:24.081Z,27.92
2019-06-26T07:39:24.326Z,27.89
2019-06-26T07:40:24.452Z,27.96
2019-06-26T07:41:24.387Z,27.96
2019-06-26T07:42:24.406Z,27.9
2019-06-26T07:43:24.172Z,28.02
2019-06-26T07:44:24.470Z,27.95
2019-06-26T07:45:28.800Z,28.01
2019-06-26T07:46:24.514Z,28.02
2019-06-26T07:47:44.976Z,27.98
2019-06-26T07:48:24.439Z,27.98
2019-06-26T07:49:24.336Z,27.96
2019-06-26T07:50:24.621Z,28.01
2019-06-26T07:51:24.402Z,28.02
2019-06-26T07:52:24.420Z,28.01
2019-06-26T07:53:24.449Z,28.02
2019-06-26T07:54:24.805Z,28.01
2019-06-26T07:55:24.243Z,28.01
2019-06-26T07:56:24.851Z,28.05
2019-06-26T07:57:24.554Z,28.1
2019-06-26T07:58:24.330Z,28.05
2019-06-26T07:59:24.614Z,28.11
2019-06-26T08:00:24.923Z,28.1
2019-06-26T08:01:24.685Z,28.14
2019-06-26T08:02:24.964Z,28.1
2019-06-26T08:03:25.024Z,28.07
2019-06-26T08:04:25.078Z,28.15
2019-06-26T08:05:25.066Z,28.1
2019-06-26T08:06:24.813Z,28.07
2019-06-26T08:07:24.573Z,28.12
2019-06-26T08:08:25.129Z,28.12
2019-06-26T08:09:25.179Z,28.07
2019-06-26T08:10:25.255Z,28.12
2019-06-26T08:11:24.953Z,28.15
2019-06-26T08:12:25.294Z,28.22
2019-06-26T08:13:25.009Z,28.19
2019-06-26T08:14:25.059Z,28.19
2019-06-26T08:15:25.334Z,28.1
2019-06-26T08:16:25.113Z,28.17
2019-06-26T08:17:25.128Z,28.12
2019-06-26T08:18:25.408Z,28.19
2019-06-26T08:19:25.544Z,28.15
2019-06-26T08:20:25.494Z,28.2
2019-06-26T08:21:25.486Z,28.12
2019-06-26T08:22:25.525Z,28.19
2019-06-26T08:23:25.684Z,28.22
2019-06-26T08:24:25.324Z,28.17
2019-06-26T08:25:25.591Z,28.17
2019-06-26T08:26:25.141Z,28.15
2019-06-26T08:27:25.652Z,28.22
2019-06-26T08:28:25.724Z,28.19
2019-06-26T08:29:25.772Z,28.2
2019-06-26T08:30:25.736Z,28.27
2019-06-26T08:31:26.019Z,28.33
2019-06-26T08:32:28.551Z,28.33
2019-06-26T08:33:25.834Z,28.3
2019-06-26T08:34:25.671Z,28.29
2019-06-26T08:35:26.026Z,28.3
2019-06-26T08:36:25.650Z,28.22
2019-06-26T08:37:25.928Z,28.3
2019-06-26T08:38:25.697Z,28.33
2019-06-26T08:39:25.723Z,28.33
2019-06-26T08:40:26.062Z,28.42
2019-06-26T08:41:26.076Z,28.32
2019-06-26T08:42:26.064Z,28.3
2019-06-26T08:43:25.855Z,28.39
2019-06-26T08:44:26.131Z,28.42
2019-06-26T08:45:26.194Z,28.39
2019-06-26T08:46:26.180Z,28.37
2019-06-26T08:47:25.940Z,28.39
2019-06-26T08:48:43.150Z,28.45
2019-06-26T08:49:30.934Z,28.35
2019-06-26T08:50:25.764Z,28.39
2019-06-26T08:51:26.083Z,28.45
2019-06-26T08:52:26.395Z,28.44
2019-06-26T08:53:26.368Z,28.39
2019-06-26T08:54:26.402Z,28.42
2019-06-26T08:55:26.436Z,28.49
2019-06-26T08:56:26.196Z,28.44
2019-06-26T08:57:26.218Z,28.49
2019-06-26T08:58:26.249Z,28.51
2019-06-26T08:59:26.532Z,28.54
2019-06-26T09:00:26.048Z,28.49
2019-06-26T09:01:26.067Z,28.48
2019-06-26T09:02:26.368Z,28.51
2019-06-26T09:03:26.389Z,28.52
2019-06-26T09:04:27.584Z,28.62
2019-06-26T09:05:26.571Z,28.48
2019-06-26T09:06:26.471Z,28.54
2019-06-26T09:07:26.503Z,28.6
2019-06-26T09:08:27.267Z,28.6
2019-06-26T09:09:26.629Z,28.62
2019-06-26T09:10:26.583Z,28.66
2019-06-26T09:11:26.876Z,28.63
2019-06-26T09:12:26.937Z,28.64
2019-06-26T09:13:26.934Z,28.64
2019-06-26T09:14:27.008Z,28.67
2019-06-26T09:15:26.984Z,28.67
2019-06-26T09:16:27.023Z,28.66
2019-06-26T09:17:27.040Z,28.69
2019-06-26T09:18:40.128Z,28.7
2019-06-26T09:19:27.110Z,28.7
2019-06-26T09:20:27.122Z,28.67
2019-06-26T09:21:26.639Z,28.75
2019-06-26T09:22:26.925Z,28.81
2019-06-26T09:23:30.087Z,28.78
2019-06-26T09:24:26.710Z,28.78
2019-06-26T09:25:27.405Z,28.72
2019-06-26T09:26:27.048Z,28.89
2019-06-26T09:27:27.064Z,28.86
2019-06-26T09:28:27.343Z,28.79
2019-06-26T09:29:28.923Z,28.79
2019-06-26T09:30:27.157Z,28.84
2019-06-26T09:31:27.518Z,28.86
2019-06-26T09:32:27.228Z,28.88
2019-06-26T09:33:27.618Z,28.86
2019-06-26T09:34:27.553Z,28.91
2019-06-26T09:35:27.593Z,28.85
2019-06-26T09:36:27.572Z,28.88
2019-06-26T09:37:27.362Z,29.01
2019-06-26T09:38:27.664Z,28.97
2019-06-26T09:39:27.133Z,29.04
2019-06-26T09:40:30.714Z,28.98
2019-06-26T09:41:27.451Z,28.97
2019-06-26T09:42:27.489Z,28.97
2019-06-26T09:43:27.526Z,28.98
2019-06-26T09:44:27.535Z,28.97
2019-06-26T09:45:27.565Z,29.04
2019-06-26T09:46:27.603Z,29.07
2019-06-26T09:47:30.772Z,29.01
2019-06-26T09:48:27.902Z,29.04
2019-06-26T09:49:27.930Z,29.07
2019-06-26T09:50:27.703Z,29.08
2019-06-26T09:51:27.747Z,29.13
2019-06-26T09:52:28.056Z,29.04
2019-06-26T09:53:27.810Z,29.2
2019-06-26T09:54:28.081Z,29.12
2019-06-26T09:55:27.586Z,29.14
2019-06-26T09:56:27.883Z,29.02
2019-06-26T09:57:27.927Z,29.17
2019-06-26T09:58:28.198Z,29.16
2019-06-26T09:59:28.251Z,29.1
2019-06-26T10:00:28.275Z,29.16
2019-06-26T10:01:28.303Z,29.17
2019-06-26T10:02:28.295Z,29.14
2019-06-26T10:03:27.805Z,29.14
2019-06-26T10:04:28.401Z,29.19
2019-06-26T10:05:28.121Z,29.14
2019-06-26T10:06:28.150Z,29.17
2019-06-26T10:07:28.437Z,29.12
2019-06-26T10:08:28.205Z,29.26
2019-06-26T10:09:27.978Z,29.22
2019-06-26T10:10:28.002Z,29.2
2019-06-26T10:11:28.552Z,29.29
2019-06-26T10:12:28.323Z,29.19
2019-06-26T10:13:28.087Z,29.24
2019-06-26T10:14:48.556Z,29.34
2019-06-26T10:15:28.409Z,29.27
2019-06-26T10:16:28.433Z,29.27
2019-06-26T10:17:28.779Z,29.26
2019-06-26T10:18:28.486Z,29.27
2019-06-26T10:19:28.535Z,29.26
2019-06-26T10:20:28.569Z,29.24
2019-06-26T10:21:28.599Z,29.32
2019-06-26T10:22:28.609Z,29.31
2019-06-26T10:23:28.938Z,29.35
2019-06-26T10:24:28.954Z,29.32
2019-06-26T10:25:28.700Z,29.31
2019-06-26T10:26:32.112Z,29.36
2019-06-26T10:27:28.606Z,29.32
2019-06-26T10:28:29.067Z,29.29
2019-06-26T10:29:28.601Z,29.32
2019-06-26T10:30:28.989Z,29.35
2019-06-26T10:31:28.915Z,29.35
2019-06-26T10:32:29.142Z,29.31
2019-06-26T10:33:29.205Z,29.39
2019-06-26T10:34:29.219Z,29.39
2019-06-26T10:35:28.968Z,29.36
2019-06-26T10:36:29.777Z,29.39
2019-06-26T10:37:29.366Z,29.49
2019-06-26T10:38:29.058Z,29.32
2019-06-26T10:39:29.356Z,29.41
2019-06-26T10:40:28.855Z,29.38
2019-06-26T10:41:28.951Z,29.34
2019-06-26T10:42:29.432Z,29.41
2019-06-26T10:43:29.211Z,29.35
2019-06-26T10:44:29.516Z,29.5
2019-06-26T10:45:29.526Z,29.41
2019-06-26T10:46:29.310Z,29.5
2019-06-26T10:47:29.318Z,29.51
2019-06-26T10:48:29.335Z,29.49
2019-06-26T10:49:32.292Z,29.49
2019-06-26T10:50:29.654Z,29.45
2019-06-26T10:51:29.165Z,29.5
2019-06-26T10:52:29.454Z,29.53
2019-06-26T10:53:29.740Z,29.59
2019-06-26T10:54:29.765Z,29.56
2019-06-26T10:55:29.821Z,29.6
2019-06-26T10:56:33.631Z,29.65
2019-06-26T10:57:29.877Z,29.56
2019-06-26T10:58:29.883Z,29.53
2019-06-26T10:59:29.915Z,29.51
2019-06-26T11:00:29.939Z,29.53
2019-06-26T11:01:29.715Z,29.51
2019-06-26T11:02:29.752Z,29.53
2019-06-26T11:03:29.766Z,29.6
2019-06-26T11:04:30.083Z,29.57
2019-06-26T11:05:29.819Z,29.57
2019-06-26T11:06:30.116Z,29.65
2019-06-26T11:07:30.133Z,29.51
2019-06-26T11:08:29.922Z,29.56
2019-06-26T11:09:30.196Z,29.63
2019-06-26T11:10:29.997Z,29.65
2019-06-26T11:11:30.004Z,29.65
2019-06-26T11:12:30.094Z,29.73
2019-06-26T11:13:29.800Z,29.65
2019-06-26T11:14:30.088Z,29.6
2019-06-26T11:15:29.843Z,29.59
2019-06-26T11:16:30.471Z,29.75
2019-06-26T11:17:30.435Z,29.71
2019-06-26T11:18:30.753Z,29.68
2019-06-26T11:19:47.177Z,29.63
2019-06-26T11:20:30.521Z,29.68
2019-06-26T11:21:30.549Z,29.69
2019-06-26T11:22:30.319Z,29.57
2019-06-26T11:23:30.589Z,29.63
2019-06-26T11:24:30.374Z,29.69
2019-06-26T11:25:30.393Z,29.61
2019-06-26T11:26:30.433Z,29.68
2019-06-26T11:27:30.443Z,29.68
2019-06-26T11:28:30.746Z,29.68
2019-06-26T11:29:30.519Z,29.72
2019-06-26T11:30:30.810Z,29.72
2019-06-26T11:31:30.826Z,29.69
2019-06-26T11:32:30.604Z,29.71
2019-06-26T11:33:30.953Z,29.81
2019-06-26T11:34:31.001Z,29.69
2019-06-26T11:35:31.020Z,29.75
2019-06-26T11:36:30.964Z,29.78
2019-06-26T11:37:30.476Z,29.78
2019-06-26T11:38:30.763Z,29.82
2019-06-26T11:39:30.524Z,29.73
2019-06-26T11:40:30.561Z,29.84
2019-06-26T11:41:31.107Z,29.72
2019-06-26T11:42:35.200Z,29.82
2019-06-26T11:43:31.273Z,29.87
2019-06-26T11:44:31.183Z,29.81
2019-06-26T11:45:30.978Z,29.86
2019-06-26T11:46:30.998Z,29.81
2019-06-26T11:47:30.760Z,29.81
2019-06-26T11:48:31.337Z,29.84
2019-06-26T11:49:31.324Z,29.88
2019-06-26T11:50:31.366Z,29.87
2019-06-26T11:51:31.389Z,29.95
2019-06-26T11:52:31.420Z,29.97
2019-06-26T11:53:31.308Z,29.95
2019-06-26T11:54:31.221Z,29.86
2019-06-26T11:55:31.531Z,29.91
2019-06-26T11:56:31.279Z,29.97
2019-06-26T11:57:31.565Z,29.94
2019-06-26T11:58:31.585Z,29.9
2019-06-26T11:59:31.392Z,29.93
2019-06-26T12:00:31.638Z,29.91
2019-06-26T12:01:31.428Z,29.94
2019-06-26T12:02:31.706Z,29.97
2019-06-26T12:03:31.752Z,29.93
2019-06-26T12:04:31.765Z,29.97
2019-06-26T12:05:31.794Z,29.98
2019-06-26T12:06:31.835Z,29.98
2019-06-26T12:07:31.585Z,29.98
2019-06-26T12:08:31.875Z,30.03
2019-06-26T12:09:31.904Z,30.02
2019-06-26T12:10:31.679Z,30.1
2019-06-26T12:11:31.736Z,30.09
2019-06-26T12:12:31.984Z,30.05
2019-06-26T12:13:35.795Z,30.08
2019-06-26T12:14:32.040Z,30.08
2019-06-26T12:15:32.075Z,30.1
2019-06-26T12:16:31.844Z,30.12
2019-06-26T12:17:32.249Z,30.06
2019-06-26T12:18:31.909Z,30.12
2019-06-26T12:19:32.294Z,30.16
2019-06-26T12:20:31.968Z,30.21
2019-06-26T12:21:31.989Z,30.18
2019-06-26T12:22:32.312Z,30.21
2019-06-26T12:23:32.332Z,30.24
2019-06-26T12:24:32.333Z,30.21
2019-06-26T12:25:32.369Z,30.23
2019-06-26T12:26:32.405Z,30.25
2019-06-26T12:27:32.209Z,30.25
2019-06-26T12:28:32.446Z,30.3
2019-06-26T12:29:35.172Z,30.23
2019-06-26T12:30:32.537Z,30.34
2019-06-26T12:31:32.569Z,30.18
2019-06-26T12:32:41.707Z,30.25
2019-06-26T12:33:32.338Z,30.35
2019-06-26T12:34:33.116Z,30.28
2019-06-26T12:35:32.468Z,30.39
2019-06-26T12:36:32.928Z,30.44
2019-06-26T12:37:42.285Z,30.46
2019-06-26T12:38:32.480Z,30.48
2019-06-26T12:39:32.507Z,30.4
2019-06-26T12:40:35.798Z,30.48
2019-06-26T12:41:32.566Z,30.51
2019-06-26T12:42:32.864Z,30.5
2019-06-26T12:43:32.884Z,30.48
2019-06-26T12:44:32.399Z,30.51
2019-06-26T12:45:32.938Z,30.55
2019-06-26T12:46:33.149Z,30.54
2019-06-26T12:47:32.995Z,30.63
2019-06-26T12:48:32.770Z,30.66
2019-06-26T12:49:33.077Z,30.65
2019-06-26T12:50:40.533Z,30.68
2019-06-26T12:51:33.121Z,30.73
2019-06-26T12:52:32.881Z,30.7
2019-06-26T12:53:32.702Z,30.77
2019-06-26T12:54:32.951Z,30.75
2019-06-26T12:55:37.570Z,30.73